Time;durP1;ratioP1;P1;durP2;ratioP2;P2;SDS_P1;SDS_P2;PMS_P1;PMS_P2;Temp;Humidity;BMP_temperature;BMP_pressure;BME280_temperature;BME280_humidity;BME280_pressure;Samples;Min_cycle;Max_cycle;Signal;HPM_P1;HPM_P2
2024/01/23 00:02:00;;;;;;;;;;;6.80;75.80;;;;;;4165477;28;20379;-83
2024/01/23 00:04:01;;;;;;;;;;;6.80;75.90;;;;;;4150188;28;19921;-83
2024/01/23 00:06:02;;;;;;;;;;;6.80;75.80;;;;;;4164316;28;19990;-83
2024/01/23 00:08:05;;;;;;;;;;;6.90;76.00;;;;;;4161436;28;19921;-84
2024/01/23 00:10:06;;;;;;;;;;;6.80;75.90;;;;;;4164655;28;19924;-84
2024/01/23 00:12:07;;;;;;;;;;;6.80;75.90;;;;;;4149387;28;20009;-84
2024/01/23 00:14:12;;;;;;;;;;;6.80;75.90;;;;;;4149256;28;19936;-83
2024/01/23 00:16:13;;;;;;;;;;;6.80;76.00;;;;;;4141877;28;19941;-82
2024/01/23 00:18:14;;;;;;;;;;;6.80;76.00;;;;;;4161391;28;19913;-83
2024/01/23 00:20:15;;;;;;;;;;;6.80;76.00;;;;;;4140286;28;20454;-82
2024/01/23 00:22:16;;;;;;;;;;;6.80;76.70;;;;;;4162350;28;19974;-82
2024/01/23 00:24:18;;;;;;;;;;;6.80;75.80;;;;;;4173991;28;19973;-82
2024/01/23 00:26:21;;;;;;;;;;;6.80;75.80;;;;;;4147371;28;19920;-82
2024/01/23 00:28:41;;;;;;;;;;;6.80;75.80;;;;;;4165726;28;19921;-83
2024/01/23 00:31:02;;;;;;;;;;;6.80;75.80;;;;;;4167238;28;19971;-83
2024/01/23 00:33:22;;;;;;;;;;;6.80;75.70;;;;;;4168170;28;19917;-83
2024/01/23 00:35:43;;;;;;;;;;;6.90;75.70;;;;;;4164634;28;19920;-82
2024/01/23 00:38:04;;;;;;;;;;;6.80;75.60;;;;;;4165491;28;19999;-83
2024/01/23 00:40:24;;;;;;;;;;;6.80;75.50;;;;;;4161509;28;19945;-82
2024/01/23 00:42:45;;;;;;;;;;;6.80;75.30;;;;;;4162322;28;19929;-82
2024/01/23 00:45:05;;;;;;;;;;;6.70;75.30;;;;;;4160857;28;19957;-82
2024/01/23 00:47:26;;;;;;;;;;;6.70;75.00;;;;;;4157876;28;19925;-82
2024/01/23 00:49:46;;;;;;;;;;;6.70;75.00;;;;;;4160109;28;19928;-83
2024/01/23 00:52:07;;;;;;;;;;;6.70;74.80;;;;;;4161543;28;19921;-82
2024/01/23 00:54:27;;;;;;;;;;;6.70;74.70;;;;;;4158869;28;19944;-81
2024/01/23 00:56:28;;;;;;;;;;;6.70;74.80;;;;;;4143631;28;19926;-83
2024/01/23 00:58:28;;;;;;;;;;;6.70;74.60;;;;;;4161818;28;19913;-83
2024/01/23 01:00:29;;;;;;;;;;;6.70;74.80;;;;;;4160266;28;20382;-82
2024/01/23 01:02:30;;;;;;;;;;;6.70;74.80;;;;;;4143518;28;19959;-83
2024/01/23 01:04:30;;;;;;;;;;;6.70;74.80;;;;;;4160293;28;19924;-82
2024/01/23 01:06:31;;;;;;;;;;;6.70;74.60;;;;;;4157909;28;19917;-81
2024/01/23 01:08:33;;;;;;;;;;;6.70;74.70;;;;;;4128307;28;19976;-82
2024/01/23 01:10:53;;;;;;;;;;;6.70;74.50;;;;;;4162309;28;19921;-82
2024/01/23 01:13:14;;;;;;;;;;;6.60;74.50;;;;;;4148459;28;19913;-82
2024/01/23 01:15:35;;;;;;;;;;;6.60;74.60;;;;;;4145752;28;19914;-82
2024/01/23 01:17:55;;;;;;;;;;;6.60;74.50;;;;;;4145559;28;19918;-83
2024/01/23 01:20:16;;;;;;;;;;;6.60;74.50;;;;;;4171719;28;20012;-82
2024/01/23 01:22:38;;;;;;;;;;;6.60;74.40;;;;;;4174965;28;19932;-82
2024/01/23 01:24:58;;;;;;;;;;;6.60;74.50;;;;;;4145045;28;19921;-82
2024/01/23 01:27:19;;;;;;;;;;;6.60;74.50;;;;;;4150487;28;19948;-81
2024/01/23 01:29:40;;;;;;;;;;;6.60;74.40;;;;;;4160835;28;19928;-82
2024/01/23 01:32:00;;;;;;;;;;;6.60;74.50;;;;;;4161360;28;19920;-83
2024/01/23 01:34:21;;;;;;;;;;;6.60;74.50;;;;;;4160633;28;20024;-82
2024/01/23 01:36:41;;;;;;;;;;;6.50;74.40;;;;;;4159880;28;19917;-82
2024/01/23 01:39:03;;;;;;;;;;;6.50;74.50;;;;;;4160372;28;19929;-83
2024/01/23 01:41:24;;;;;;;;;;;6.50;74.50;;;;;;4152086;28;19960;-82
2024/01/23 01:43:44;;;;;;;;;;;6.60;75.40;;;;;;4150033;28;19909;-83
2024/01/23 01:46:04;;;;;;;;;;;6.40;74.60;;;;;;4158580;28;19921;-83
2024/01/23 01:48:26;;;;;;;;;;;6.50;74.70;;;;;;4158698;28;19924;-83
2024/01/23 01:50:46;;;;;;;;;;;6.50;74.80;;;;;;4160372;28;19921;-83
2024/01/23 01:52:47;;;;;;;;;;;6.50;74.80;;;;;;4163571;28;20739;-83
2024/01/23 01:54:48;;;;;;;;;;;6.40;74.80;;;;;;4159348;28;19940;-83
2024/01/23 01:57:09;;;;;;;;;;;6.50;75.00;;;;;;4141460;28;19980;-83
2024/01/23 01:59:30;;;;;;;;;;;6.50;75.00;;;;;;4145798;28;19965;-83
2024/01/23 02:01:35;;;;;;;;;;;6.40;74.80;;;;;;4127892;28;19922;-82
2024/01/23 02:03:56;;;;;;;;;;;6.40;74.90;;;;;;4151428;28;19959;-82
2024/01/23 02:06:17;;;;;;;;;;;6.40;75.00;;;;;;4146459;28;20000;-82
2024/01/23 02:08:38;;;;;;;;;;;6.40;75.00;;;;;;4159523;28;19953;-83
2024/01/23 02:10:59;;;;;;;;;;;6.40;74.90;;;;;;4159154;28;19912;-83
2024/01/23 02:13:19;;;;;;;;;;;6.40;75.00;;;;;;4161244;28;19913;-83
2024/01/23 02:15:40;;;;;;;;;;;6.40;75.00;;;;;;4160640;28;19922;-83
2024/01/23 02:18:00;;;;;;;;;;;6.40;75.00;;;;;;4144683;28;19928;-82
2024/01/23 02:20:01;;;;;;;;;;;6.40;75.00;;;;;;4163278;28;20434;-82
2024/01/23 02:22:02;;;;;;;;;;;6.40;75.00;;;;;;4161822;28;20575;-83
2024/01/23 02:24:02;;;;;;;;;;;6.40;75.00;;;;;;4158555;28;20389;-82
2024/01/23 02:26:23;;;;;;;;;;;6.40;75.10;;;;;;4166725;28;19909;-82
2024/01/23 02:28:25;;;;;;;;;;;6.40;75.10;;;;;;4146555;28;19917;-83
2024/01/23 02:30:45;;;;;;;;;;;6.40;75.20;;;;;;4148290;28;19913;-84
2024/01/23 02:33:06;;;;;;;;;;;6.40;75.30;;;;;;4162484;28;19941;-83
2024/01/23 02:35:26;;;;;;;;;;;6.40;75.20;;;;;;4161298;28;19913;-83
2024/01/23 02:37:47;;;;;;;;;;;6.40;75.30;;;;;;4158312;28;20430;-83
2024/01/23 02:40:08;;;;;;;;;;;6.30;75.30;;;;;;4148159;28;19932;-84
2024/01/23 02:42:28;;;;;;;;;;;6.30;75.30;;;;;;4146423;28;19921;-83
2024/01/23 02:44:48;;;;;;;;;;;6.30;75.30;;;;;;4164020;28;20434;-83
2024/01/23 02:47:09;;;;;;;;;;;6.40;75.40;;;;;;4157133;28;19939;-83
2024/01/23 02:49:30;;;;;;;;;;;6.30;75.30;;;;;;4161395;28;19921;-82
2024/01/23 02:51:52;;;;;;;;;;;6.30;75.30;;;;;;4163073;28;19913;-82
2024/01/23 02:54:13;;;;;;;;;;;6.40;75.40;;;;;;4145557;28;19936;-83
2024/01/23 02:56:33;;;;;;;;;;;6.30;75.40;;;;;;4162493;28;19917;-83
2024/01/23 02:58:34;;;;;;;;;;;6.30;75.40;;;;;;4143485;28;19913;-83
2024/01/23 03:00:35;;;;;;;;;;;6.30;75.50;;;;;;4160866;28;20018;-83
2024/01/23 03:02:36;;;;;;;;;;;6.30;75.40;;;;;;4161128;28;19913;-83
2024/01/23 03:04:36;;;;;;;;;;;6.30;75.50;;;;;;4125893;28;19921;-82
2024/01/23 03:06:36;;;;;;;;;;;6.30;75.50;;;;;;4141594;28;19922;-83
2024/01/23 03:08:37;;;;;;;;;;;6.30;75.50;;;;;;4160259;28;19924;-83
2024/01/23 03:10:38;;;;;;;;;;;6.30;75.50;;;;;;4146828;28;19988;-82
2024/01/23 03:12:58;;;;;;;;;;;6.30;75.60;;;;;;4158469;28;19921;-83
2024/01/23 03:15:19;;;;;;;;;;;6.30;75.70;;;;;;4158441;28;19919;-82
2024/01/23 03:17:19;;;;;;;;;;;6.40;75.70;;;;;;4163807;28;19917;-84
2024/01/23 03:19:41;;;;;;;;;;;6.30;75.80;;;;;;4158271;28;20012;-82
2024/01/23 03:22:01;;;;;;;;;;;6.30;75.90;;;;;;4162847;28;20003;-83
2024/01/23 03:24:22;;;;;;;;;;;6.30;75.90;;;;;;4162103;28;19913;-83
2024/01/23 03:26:42;;;;;;;;;;;6.40;76.00;;;;;;4157554;28;19941;-83
2024/01/23 03:29:03;;;;;;;;;;;6.40;76.00;;;;;;4160825;28;19917;-82
2024/01/23 03:31:24;;;;;;;;;;;6.40;76.00;;;;;;4146414;28;19947;-82
2024/01/23 03:33:46;;;;;;;;;;;6.40;75.90;;;;;;4159703;28;19913;-83
2024/01/23 03:36:07;;;;;;;;;;;6.40;76.00;;;;;;4155688;28;19913;-81
2024/01/23 03:38:27;;;;;;;;;;;6.40;76.00;;;;;;4148029;28;19963;-83
2024/01/23 03:40:28;;;;;;;;;;;6.40;76.00;;;;;;4143535;28;19936;-83
2024/01/23 03:42:29;;;;;;;;;;;6.40;76.10;;;;;;4163024;28;19921;-83
2024/01/23 03:44:29;;;;;;;;;;;6.40;76.20;;;;;;4161730;28;20076;-83
2024/01/23 03:46:30;;;;;;;;;;;6.40;76.30;;;;;;4141996;28;19913;-83
2024/01/23 03:48:31;;;;;;;;;;;6.40;76.60;;;;;;4144637;28;19918;-82
2024/01/23 03:50:52;;;;;;;;;;;6.40;76.50;;;;;;4155918;28;19945;-83
2024/01/23 03:52:52;;;;;;;;;;;6.40;76.40;;;;;;4138626;28;19924;-81
2024/01/23 03:55:13;;;;;;;;;;;6.40;76.50;;;;;;4158094;28;20082;-83
2024/01/23 03:57:34;;;;;;;;;;;6.40;76.90;;;;;;4146292;28;19917;-82
2024/01/23 03:59:54;;;;;;;;;;;6.30;77.00;;;;;;4142129;28;19914;-83
2024/01/23 04:02:15;;;;;;;;;;;6.30;76.90;;;;;;4162059;28;19925;-82
2024/01/23 04:04:36;;;;;;;;;;;6.30;77.10;;;;;;4162914;28;19972;-83
2024/01/23 04:06:56;;;;;;;;;;;6.30;77.10;;;;;;4145144;28;19920;-83
2024/01/23 04:09:17;;;;;;;;;;;6.30;77.70;;;;;;4158170;28;19921;-82
2024/01/23 04:11:37;;;;;;;;;;;6.20;77.70;;;;;;4159098;28;19917;-83
2024/01/23 04:13:58;;;;;;;;;;;6.20;77.90;;;;;;4141224;28;20401;-82
2024/01/23 04:16:18;;;;;;;;;;;6.20;78.20;;;;;;4157297;28;19972;-83
2024/01/23 04:18:19;;;;;;;;;;;6.20;78.10;;;;;;4159826;28;20291;-83
2024/01/23 04:20:40;;;;;;;;;;;6.20;78.40;;;;;;4145343;28;19925;-83
2024/01/23 04:22:41;;;;;;;;;;;6.20;78.90;;;;;;4139888;28;19921;-83
2024/01/23 04:25:02;;;;;;;;;;;6.20;79.20;;;;;;4154431;28;19924;-82
2024/01/23 04:27:22;;;;;;;;;;;6.10;79.60;;;;;;4161481;28;19928;-82
2024/01/23 04:29:43;;;;;;;;;;;6.10;80.00;;;;;;4152014;28;19918;-83
2024/01/23 04:32:04;;;;;;;;;;;6.00;80.20;;;;;;4163540;28;20004;-82
2024/01/23 04:34:24;;;;;;;;;;;6.00;80.20;;;;;;4162187;28;19928;-84
2024/01/23 04:36:45;;;;;;;;;;;6.10;80.30;;;;;;4162929;28;19932;-84
2024/01/23 04:39:05;;;;;;;;;;;6.00;80.30;;;;;;4166050;28;19917;-83
2024/01/23 04:41:27;;;;;;;;;;;6.00;80.20;;;;;;4165981;28;19921;-83
2024/01/23 04:43:28;;;;;;;;;;;6.00;80.10;;;;;;4143391;28;19917;-83
2024/01/23 04:45:28;;;;;;;;;;;6.00;80.70;;;;;;4150060;28;19928;-83
2024/01/23 04:47:29;;;;;;;;;;;6.00;80.40;;;;;;4158863;28;19925;-82
2024/01/23 04:49:30;;;;;;;;;;;6.00;80.80;;;;;;4143881;28;19925;-82
2024/01/23 04:51:31;;;;;;;;;;;6.00;80.70;;;;;;4162053;28;20403;-83
2024/01/23 04:53:33;;;;;;;;;;;6.00;80.70;;;;;;4146399;28;19917;-82
2024/01/23 04:55:49;;;;;;;;;;;6.00;81.00;;;;;;4145416;28;20461;-82
2024/01/23 04:58:09;;;;;;;;;;;6.00;81.00;;;;;;4159606;28;19924;-82
2024/01/23 05:00:20;;;;;;;;;;;6.00;81.10;;;;;;4159379;28;19927;-82
2024/01/23 05:02:41;;;;;;;;;;;6.00;81.20;;;;;;4161442;28;19921;-83
2024/01/23 05:05:03;;;;;;;;;;;6.00;81.40;;;;;;4160015;28;19913;-83
2024/01/23 05:07:23;;;;;;;;;;;6.00;81.70;;;;;;4158162;28;19917;-82
2024/01/23 05:09:44;;;;;;;;;;;6.00;81.90;;;;;;4159242;28;20004;-83
2024/01/23 05:12:04;;;;;;;;;;;5.90;81.90;;;;;;4157421;28;19941;-83
2024/01/23 05:14:25;;;;;;;;;;;5.90;82.00;;;;;;4148911;28;19956;-83
2024/01/23 05:16:46;;;;;;;;;;;6.00;81.90;;;;;;4159984;28;19913;-83
2024/01/23 05:19:06;;;;;;;;;;;6.00;81.90;;;;;;4161717;28;19913;-83
2024/01/23 05:21:08;;;;;;;;;;;6.00;82.10;;;;;;4161172;28;20256;-82
2024/01/23 05:23:08;;;;;;;;;;;6.00;82.10;;;;;;4158781;28;20352;-83
2024/01/23 05:25:09;;;;;;;;;;;6.00;82.10;;;;;;4143096;28;19924;-84
2024/01/23 05:27:09;;;;;;;;;;;5.90;82.40;;;;;;4140015;28;19921;-84
2024/01/23 05:29:10;;;;;;;;;;;6.00;82.90;;;;;;4149069;28;20006;-82
2024/01/23 05:31:20;;;;;;;;;;;5.90;82.70;;;;;;4131616;28;19997;-83
2024/01/23 05:33:41;;;;;;;;;;;5.90;82.80;;;;;;4143524;28;19948;-82
2024/01/23 05:35:41;;;;;;;;;;;5.90;82.90;;;;;;4147433;28;19922;-82
2024/01/23 05:38:02;;;;;;;;;;;5.90;82.90;;;;;;4158018;28;19936;-83
2024/01/23 05:40:23;;;;;;;;;;;5.90;83.30;;;;;;4161447;28;19917;-83
2024/01/23 05:42:43;;;;;;;;;;;5.90;83.20;;;;;;4160273;28;20023;-82
2024/01/23 05:45:04;;;;;;;;;;;5.90;83.30;;;;;;4156904;28;20066;-81
2024/01/23 05:47:25;;;;;;;;;;;5.90;83.50;;;;;;4143215;28;19913;-83
2024/01/23 05:49:46;;;;;;;;;;;5.90;83.40;;;;;;4163143;28;19956;-83
2024/01/23 05:52:07;;;;;;;;;;;5.90;83.40;;;;;;4153498;28;19913;-84
2024/01/23 05:54:27;;;;;;;;;;;5.90;83.40;;;;;;4164398;28;19924;-83
2024/01/23 05:56:48;;;;;;;;;;;5.90;83.50;;;;;;4148067;28;19996;-84
2024/01/23 05:59:08;;;;;;;;;;;5.90;83.40;;;;;;4159951;28;19925;-81
2024/01/23 06:01:32;;;;;;;;;;;5.90;83.40;;;;;;4149832;28;19987;-83
2024/01/23 06:03:52;;;;;;;;;;;5.90;83.40;;;;;;4160786;28;19944;-83
2024/01/23 06:05:55;;;;;;;;;;;6.00;83.50;;;;;;4156934;28;20277;-83
2024/01/23 06:07:55;;;;;;;;;;;6.00;83.50;;;;;;4157962;28;19956;-82
2024/01/23 06:10:16;;;;;;;;;;;5.90;83.40;;;;;;4141083;28;19918;-82
2024/01/23 06:12:37;;;;;;;;;;;5.90;83.60;;;;;;4143170;28;19921;-83
2024/01/23 06:14:57;;;;;;;;;;;6.00;83.60;;;;;;4146305;28;19922;-84
2024/01/23 06:16:58;;;;;;;;;;;6.00;84.10;;;;;;4157292;28;20451;-83
2024/01/23 06:19:18;;;;;;;;;;;5.90;83.90;;;;;;4159465;28;19917;-84
2024/01/23 06:21:39;;;;;;;;;;;6.00;84.10;;;;;;4143660;28;20045;-83
2024/01/23 06:23:40;;;;;;;;;;;6.00;84.00;;;;;;4127004;28;19913;-84
2024/01/23 06:26:01;;;;;;;;;;;6.00;84.10;;;;;;4148710;28;20372;-84
2024/01/23 06:28:23;;;;;;;;;;;6.00;84.10;;;;;;4144129;28;19922;-83
2024/01/23 06:30:43;;;;;;;;;;;6.00;84.10;;;;;;4175909;28;19916;-85
2024/01/23 06:33:05;;;;;;;;;;;6.00;84.20;;;;;;4176939;28;19977;-82
2024/01/23 06:35:26;;;;;;;;;;;6.00;84.20;;;;;;4160352;28;19905;-84
2024/01/23 06:37:46;;;;;;;;;;;6.00;84.10;;;;;;4147536;28;19917;-82
2024/01/23 06:40:08;;;;;;;;;;;6.00;84.30;;;;;;4175839;28;19977;-86
2024/01/23 06:42:28;;;;;;;;;;;5.90;84.40;;;;;;4170090;28;19906;-85
2024/01/23 06:44:49;;;;;;;;;;;6.00;84.60;;;;;;4185249;28;19917;-83
2024/01/23 06:47:10;;;;;;;;;;;5.90;84.60;;;;;;4167929;28;19955;-83
2024/01/23 06:49:30;;;;;;;;;;;6.00;85.40;;;;;;4157292;28;19921;-83
2024/01/23 06:51:31;;;;;;;;;;;6.00;84.60;;;;;;4145271;28;19998;-83
2024/01/23 06:53:32;;;;;;;;;;;6.00;84.60;;;;;;4143776;28;19912;-85
2024/01/23 06:55:32;;;;;;;;;;;6.00;84.40;;;;;;4145486;28;19944;-83
2024/01/23 06:57:33;;;;;;;;;;;6.10;84.30;;;;;;4144141;28;19963;-84
2024/01/23 06:59:33;;;;;;;;;;;6.10;84.10;;;;;;4145115;28;19914;-84
2024/01/23 07:01:34;;;;;;;;;;;6.10;84.00;;;;;;4124988;28;19956;-84
2024/01/23 07:03:34;;;;;;;;;;;6.10;83.90;;;;;;4142266;28;20016;-83
2024/01/23 07:05:55;;;;;;;;;;;6.10;83.90;;;;;;4147643;28;19910;-83
2024/01/23 07:08:15;;;;;;;;;;;6.10;83.70;;;;;;4143499;28;19913;-83
2024/01/23 07:10:36;;;;;;;;;;;6.10;83.50;;;;;;4157613;28;19913;-83
2024/01/23 07:12:56;;;;;;;;;;;6.10;83.20;;;;;;4136926;28;19913;-82
2024/01/23 07:15:17;;;;;;;;;;;6.10;83.00;;;;;;4155619;28;19917;-83
2024/01/23 07:17:31;;;;;;;;;;;6.10;82.70;;;;;;4156010;28;19917;-82
2024/01/23 07:19:52;;;;;;;;;;;6.10;82.40;;;;;;4158250;28;19928;-82
2024/01/23 07:22:12;;;;;;;;;;;6.00;82.30;;;;;;4158059;28;19921;-84
2024/01/23 07:24:33;;;;;;;;;;;6.10;82.10;;;;;;4157039;28;20003;-83
2024/01/23 07:26:53;;;;;;;;;;;6.10;82.10;;;;;;4158574;28;19964;-82
2024/01/23 07:29:14;;;;;;;;;;;6.00;81.90;;;;;;4140576;28;19910;-83
2024/01/23 07:31:35;;;;;;;;;;;6.00;81.60;;;;;;4155939;28;19924;-84
2024/01/23 07:33:55;;;;;;;;;;;6.00;81.50;;;;;;4156410;28;19917;-82
2024/01/23 07:36:16;;;;;;;;;;;6.00;81.40;;;;;;4157216;28;19912;-84
2024/01/23 07:38:36;;;;;;;;;;;6.00;81.30;;;;;;4156780;28;19913;-84
2024/01/23 07:40:57;;;;;;;;;;;5.90;81.00;;;;;;4155547;28;19917;-82
2024/01/23 07:42:57;;;;;;;;;;;5.90;80.90;;;;;;4157337;28;20659;-83
2024/01/23 07:44:58;;;;;;;;;;;5.90;80.90;;;;;;4157713;28;20004;-82
2024/01/23 07:46:59;;;;;;;;;;;5.90;80.90;;;;;;4159593;28;19917;-83
2024/01/23 07:48:59;;;;;;;;;;;5.90;80.90;;;;;;4146616;28;19971;-83
2024/01/23 07:51:00;;;;;;;;;;;5.90;80.80;;;;;;4155855;28;19932;-83
2024/01/23 07:53:00;;;;;;;;;;;5.90;80.80;;;;;;4146101;28;19917;-83
2024/01/23 07:55:02;;;;;;;;;;;5.90;80.80;;;;;;4141034;28;19969;-82
2024/01/23 07:57:03;;;;;;;;;;;5.90;80.80;;;;;;4157373;28;20573;-83
2024/01/23 07:59:05;;;;;;;;;;;5.90;80.80;;;;;;4141291;28;20338;-83
2024/01/23 08:01:05;;;;;;;;;;;5.90;80.80;;;;;;4143248;28;19964;-84
2024/01/23 08:03:06;;;;;;;;;;;5.90;80.70;;;;;;4158438;28;20516;-83
2024/01/23 08:05:08;;;;;;;;;;;5.90;80.80;;;;;;4157516;28;19909;-82
2024/01/23 08:07:09;;;;;;;;;;;6.00;81.00;;;;;;4151612;28;19920;-83
2024/01/23 08:09:10;;;;;;;;;;;5.90;80.90;;;;;;4157699;28;19917;-83
2024/01/23 08:11:11;;;;;;;;;;;6.00;81.00;;;;;;4154338;28;20431;-82
2024/01/23 08:13:12;;;;;;;;;;;6.00;80.90;;;;;;4160074;28;19924;-83
2024/01/23 08:15:12;;;;;;;;;;;6.00;80.70;;;;;;4164327;28;20368;-82
2024/01/23 08:17:13;;;;;;;;;;;6.00;80.60;;;;;;4161650;28;19913;-83
2024/01/23 08:19:13;;;;;;;;;;;6.00;80.50;;;;;;4161657;28;19913;-82
2024/01/23 08:21:14;;;;;;;;;;;6.10;80.40;;;;;;4143261;28;20296;-81
2024/01/23 08:23:15;;;;;;;;;;;6.10;80.70;;;;;;4158487;28;19917;-83
2024/01/23 08:25:15;;;;;;;;;;;6.10;80.30;;;;;;4141237;28;19910;-82
2024/01/23 08:27:16;;;;;;;;;;;6.10;80.20;;;;;;4157849;28;19913;-83
2024/01/23 08:29:16;;;;;;;;;;;6.10;80.30;;;;;;4162373;28;19910;-82
2024/01/23 08:31:17;;;;;;;;;;;6.10;80.20;;;;;;4160605;28;20023;-83
2024/01/23 08:33:19;;;;;;;;;;;6.10;80.00;;;;;;4154788;28;19917;-84
2024/01/23 08:35:20;;;;;;;;;;;6.10;79.90;;;;;;4156130;28;20371;-83
2024/01/23 08:37:20;;;;;;;;;;;6.20;79.90;;;;;;4163938;28;19941;-83
2024/01/23 08:39:21;;;;;;;;;;;6.20;79.60;;;;;;4160115;28;19959;-83
2024/01/23 08:41:22;;;;;;;;;;;6.20;79.50;;;;;;4140824;28;20414;-82
2024/01/23 08:43:22;;;;;;;;;;;6.10;79.20;;;;;;4145071;28;19920;-82
2024/01/23 08:45:23;;;;;;;;;;;6.20;79.20;;;;;;4158682;28;20075;-83
2024/01/23 08:47:23;;;;;;;;;;;6.20;79.50;;;;;;4142339;28;19914;-83
2024/01/23 08:49:24;;;;;;;;;;;6.20;79.10;;;;;;4156378;28;19910;-83
2024/01/23 08:51:24;;;;;;;;;;;6.20;78.90;;;;;;4159987;28;19913;-82
2024/01/23 08:53:25;;;;;;;;;;;6.20;78.80;;;;;;4161025;28;19918;-82
2024/01/23 08:55:25;;;;;;;;;;;6.30;78.80;;;;;;4157715;28;19956;-83
2024/01/23 08:57:26;;;;;;;;;;;6.20;78.50;;;;;;4141576;28;19968;-84
2024/01/23 08:59:28;;;;;;;;;;;6.20;78.70;;;;;;4158379;28;20011;-84
2024/01/23 09:01:29;;;;;;;;;;;6.30;78.50;;;;;;4158781;28;19924;-83
2024/01/23 09:03:29;;;;;;;;;;;6.30;78.30;;;;;;4162426;28;19962;-84
2024/01/23 09:05:30;;;;;;;;;;;6.30;78.20;;;;;;4160968;28;19924;-83
2024/01/23 09:07:30;;;;;;;;;;;6.30;78.20;;;;;;4146204;28;19917;-84
2024/01/23 09:09:31;;;;;;;;;;;6.40;78.30;;;;;;4164972;28;19986;-85
2024/01/23 09:11:31;;;;;;;;;;;6.40;78.20;;;;;;4161186;28;19924;-83
2024/01/23 09:13:32;;;;;;;;;;;6.40;78.10;;;;;;4161494;28;19913;-83
2024/01/23 09:15:33;;;;;;;;;;;6.40;78.00;;;;;;4160838;28;19917;-83
2024/01/23 09:17:33;;;;;;;;;;;6.50;78.20;;;;;;4156099;28;19919;-83
2024/01/23 09:19:34;;;;;;;;;;;6.50;78.10;;;;;;4140842;28;19913;-83
2024/01/23 09:21:34;;;;;;;;;;;6.50;78.00;;;;;;4144921;28;19929;-82
2024/01/23 09:23:38;;;;;;;;;;;6.60;78.70;;;;;;4156346;28;20004;-83
2024/01/23 09:25:38;;;;;;;;;;;6.60;78.00;;;;;;4157638;28;20039;-83
2024/01/23 09:27:39;;;;;;;;;;;6.60;78.10;;;;;;4158870;28;19925;-83
2024/01/23 09:29:41;;;;;;;;;;;6.60;77.80;;;;;;4141654;28;19920;-83
2024/01/23 09:31:45;;;;;;;;;;;6.70;78.00;;;;;;4152553;28;20508;-83
2024/01/23 09:33:46;;;;;;;;;;;6.70;77.80;;;;;;4135584;28;19921;-84
2024/01/23 09:35:48;;;;;;;;;;;6.70;77.80;;;;;;4153081;28;19920;-82
2024/01/23 09:37:48;;;;;;;;;;;6.80;77.70;;;;;;4150135;28;19956;-84
2024/01/23 09:39:49;;;;;;;;;;;6.80;77.80;;;;;;4145973;28;20334;-83
2024/01/23 09:41:50;;;;;;;;;;;6.80;77.80;;;;;;4159497;28;19913;-83
2024/01/23 09:43:51;;;;;;;;;;;6.80;77.80;;;;;;4158022;28;19914;-84
2024/01/23 09:45:53;;;;;;;;;;;6.80;77.80;;;;;;4137533;28;19921;-83
2024/01/23 09:47:54;;;;;;;;;;;6.80;77.90;;;;;;4140199;28;19940;-82
2024/01/23 09:49:55;;;;;;;;;;;6.90;78.00;;;;;;4161330;28;19909;-83
2024/01/23 09:52:00;;;;;;;;;;;6.90;78.00;;;;;;4159061;28;19917;-83
2024/01/23 09:54:00;;;;;;;;;;;6.80;78.10;;;;;;4144975;28;19917;-83
2024/01/23 09:56:01;;;;;;;;;;;6.90;78.10;;;;;;4161549;28;19928;-83
2024/01/23 09:58:02;;;;;;;;;;;6.90;78.00;;;;;;4140066;28;19921;-83
2024/01/23 10:00:06;;;;;;;;;;;6.90;78.00;;;;;;4158436;28;20513;-84
2024/01/23 10:02:08;;;;;;;;;;;6.90;78.10;;;;;;4141791;28;19968;-84
2024/01/23 10:04:09;;;;;;;;;;;6.90;78.00;;;;;;4158793;28;19913;-83
2024/01/23 10:06:09;;;;;;;;;;;6.90;78.10;;;;;;4156066;28;19923;-83
2024/01/23 10:08:10;;;;;;;;;;;6.90;78.00;;;;;;4156827;28;19917;-84
2024/01/23 10:10:17;;;;;;;;;;;6.90;78.00;;;;;;4127578;28;19942;-84
2024/01/23 10:12:18;;;;;;;;;;;7.00;78.10;;;;;;4155844;28;19917;-84
2024/01/23 10:14:18;;;;;;;;;;;6.90;78.10;;;;;;4156160;28;19909;-84
2024/01/23 10:16:19;;;;;;;;;;;7.00;78.50;;;;;;4156383;28;19917;-84
2024/01/23 10:18:21;;;;;;;;;;;7.00;78.20;;;;;;4156313;28;20549;-84
2024/01/23 10:20:21;;;;;;;;;;;7.00;78.30;;;;;;4143098;28;20348;-83
2024/01/23 10:22:23;;;;;;;;;;;7.10;78.40;;;;;;4143821;28;19976;-84
2024/01/23 10:24:23;;;;;;;;;;;7.00;78.40;;;;;;4158183;28;20414;-84
2024/01/23 10:26:25;;;;;;;;;;;7.10;78.50;;;;;;4132807;28;19910;-83
2024/01/23 10:28:25;;;;;;;;;;;7.10;78.50;;;;;;4139777;28;19967;-84
2024/01/23 10:30:26;;;;;;;;;;;7.10;78.60;;;;;;4154904;28;20000;-83
2024/01/23 10:32:28;;;;;;;;;;;7.10;78.60;;;;;;4161565;28;19999;-83
2024/01/23 10:34:29;;;;;;;;;;;7.10;78.50;;;;;;4157629;28;19922;-84
2024/01/23 10:36:29;;;;;;;;;;;7.20;78.60;;;;;;4159670;28;20368;-83
2024/01/23 10:38:31;;;;;;;;;;;7.10;78.60;;;;;;4157111;28;19936;-83
2024/01/23 10:40:32;;;;;;;;;;;7.10;78.70;;;;;;4154122;28;20093;-83
2024/01/23 10:42:32;;;;;;;;;;;7.10;78.50;;;;;;4154981;28;19923;-84
2024/01/23 10:44:33;;;;;;;;;;;7.10;78.60;;;;;;4158114;28;19921;-85
2024/01/23 10:46:34;;;;;;;;;;;7.20;78.70;;;;;;4134162;28;20663;-85
2024/01/23 10:48:34;;;;;;;;;;;7.20;79.50;;;;;;4172842;28;19913;-83
2024/01/23 10:50:35;;;;;;;;;;;7.20;78.60;;;;;;4165711;28;19908;-85
2024/01/23 10:52:38;;;;;;;;;;;7.20;78.50;;;;;;4149885;28;19984;-83
2024/01/23 10:54:45;;;;;;;;;;;7.30;78.60;;;;;;4146406;28;19914;-83
2024/01/23 10:56:49;;;;;;;;;;;7.20;78.50;;;;;;4162289;28;19918;-83
2024/01/23 10:59:03;;;;;;;;;;;7.20;78.40;;;;;;4128739;28;19914;-83
2024/01/23 11:01:11;;;;;;;;;;;7.30;78.50;;;;;;4142742;28;19917;-83
2024/01/23 11:03:14;;;;;;;;;;;7.40;78.40;;;;;;4157500;28;19956;-84
2024/01/23 11:05:15;;;;;;;;;;;7.30;78.40;;;;;;4138220;28;19988;-83
2024/01/23 11:07:17;;;;;;;;;;;7.30;78.20;;;;;;4143765;28;19918;-83
2024/01/23 11:09:23;;;;;;;;;;;7.30;78.30;;;;;;4141552;28;19921;-83
2024/01/23 11:11:36;;;;;;;;;;;7.30;78.40;;;;;;4145326;28;19922;-83
2024/01/23 11:13:42;;;;;;;;;;;7.40;78.40;;;;;;4120426;28;19945;-83
2024/01/23 11:15:43;;;;;;;;;;;7.40;78.20;;;;;;4158458;28;20011;-83
2024/01/23 11:17:44;;;;;;;;;;;7.40;78.20;;;;;;4162158;28;19914;-82
2024/01/23 11:20:03;;;;;;;;;;;7.40;77.80;;;;;;4158582;28;19964;-83
2024/01/23 11:22:04;;;;;;;;;;;7.40;77.60;;;;;;4144106;28;19936;-83
2024/01/23 11:24:05;;;;;;;;;;;7.40;77.90;;;;;;4156869;28;19917;-82
2024/01/23 11:26:14;;;;;;;;;;;7.40;77.60;;;;;;4145325;28;20478;-84
2024/01/23 11:28:15;;;;;;;;;;;7.40;77.40;;;;;;4139677;28;20008;-84
2024/01/23 11:30:55;;;;;;;;;;;7.40;77.50;;;;;;4156859;28;19917;-83
2024/01/23 11:33:20;;;;;;;;;;;7.50;77.60;;;;;;4142782;28;19972;-84
2024/01/23 11:35:59;;;;;;;;;;;7.50;77.40;;;;;;4144888;28;19959;-83
2024/01/23 11:38:02;;;;;;;;;;;7.50;77.20;;;;;;4121353;28;19913;-84
2024/01/23 11:40:33;;;;;;;;;;;7.50;77.20;;;;;;4158820;28;19956;-84
2024/01/23 11:42:54;;;;;;;;;;;7.60;77.00;;;;;;4155653;28;19995;-83
2024/01/23 11:45:41;;;;;;;;;;;7.60;76.80;;;;;;4157532;28;19944;-84
2024/01/23 11:48:02;;;;;;;;;;;7.60;76.60;;;;;;4146314;28;19920;-84
2024/01/23 11:50:23;;;;;;;;;;;7.60;76.40;;;;;;4151427;28;19928;-83
2024/01/23 11:52:46;;;;;;;;;;;7.60;76.40;;;;;;4183419;28;19912;-83
2024/01/23 11:54:47;;;;;;;;;;;7.60;76.00;;;;;;4191655;28;19901;-84
2024/01/23 11:56:48;;;;;;;;;;;7.60;76.20;;;;;;4173299;28;19948;-82
2024/01/23 11:58:48;;;;;;;;;;;7.60;75.90;;;;;;4178863;28;19920;-84
2024/01/23 12:00:49;;;;;;;;;;;7.60;75.70;;;;;;4147820;28;19924;-84
2024/01/23 12:02:50;;;;;;;;;;;7.70;75.60;;;;;;4162541;28;19917;-83
2024/01/23 12:04:50;;;;;;;;;;;7.70;75.60;;;;;;4144405;28;19909;-84
2024/01/23 12:06:51;;;;;;;;;;;7.70;75.40;;;;;;4129415;28;20012;-84
2024/01/23 12:08:51;;;;;;;;;;;7.70;75.30;;;;;;4145466;28;20448;-83
2024/01/23 12:10:52;;;;;;;;;;;7.70;75.20;;;;;;4158213;28;19921;-83
2024/01/23 12:12:56;;;;;;;;;;;7.70;75.20;;;;;;4149178;28;19977;-83
2024/01/23 12:14:58;;;;;;;;;;;7.60;74.60;;;;;;4142319;28;20411;-84
2024/01/23 12:17:04;;;;;;;;;;;7.70;74.90;;;;;;4164706;28;20008;-84
2024/01/23 12:19:05;;;;;;;;;;;7.60;74.60;;;;;;4164973;28;19929;-84
2024/01/23 12:21:06;;;;;;;;;;;7.60;74.80;;;;;;4145272;28;19926;-85
2024/01/23 12:23:06;;;;;;;;;;;7.70;74.80;;;;;;4153769;28;19910;-84
2024/01/23 12:25:09;;;;;;;;;;;7.70;74.80;;;;;;4147857;28;19945;-84
2024/01/23 12:27:09;;;;;;;;;;;7.70;74.60;;;;;;4152389;28;20384;-84
2024/01/23 12:29:10;;;;;;;;;;;7.60;74.40;;;;;;4149177;28;19914;-84
2024/01/23 12:31:11;;;;;;;;;;;7.70;74.60;;;;;;4145911;28;19920;-83
2024/01/23 12:33:16;;;;;;;;;;;7.70;74.20;;;;;;4165803;28;19909;-84
2024/01/23 12:35:16;;;;;;;;;;;7.70;73.80;;;;;;4151487;28;19910;-84
2024/01/23 12:37:17;;;;;;;;;;;7.70;74.00;;;;;;4152500;28;19988;-84
2024/01/23 12:39:17;;;;;;;;;;;7.70;73.90;;;;;;4155170;28;19960;-83
2024/01/23 12:41:18;;;;;;;;;;;7.70;74.10;;;;;;4164550;28;20416;-83
2024/01/23 12:43:19;;;;;;;;;;;7.70;74.30;;;;;;4160723;28;19921;-84
2024/01/23 12:45:20;;;;;;;;;;;7.80;74.50;;;;;;4161065;28;20064;-83
2024/01/23 12:47:21;;;;;;;;;;;7.80;74.50;;;;;;4142829;28;19913;-84